Time;durP1;ratioP1;P1;durP2;ratioP2;P2;SDS_P1;SDS_P2;PMS_P1;PMS_P2;Temp;Humidity;BMP_temperature;BMP_pressure;BME280_temperature;BME280_humidity;BME280_pressure;Samples;Min_cycle;Max_cycle;Signal;HPM_P1;HPM_P2
2021/09/03 00:01:31;;;;;;;14.15;8.85;;;;;;;22.54;52.96;102591.81;4985254;28;20764;-70
2021/09/03 00:03:57;;;;;;;13.15;8.15;;;;;;;22.59;52.84;102600.13;4999650;28;20038;-70
2021/09/03 00:06:23;;;;;;;12.95;8.60;;;;;;;22.61;52.71;102602.63;4984073;28;20057;-70
2021/09/03 00:08:48;;;;;;;13.20;8.40;;;;;;;22.52;52.89;102580.53;4999779;28;20042;-71
2021/09/03 00:11:14;;;;;;;13.75;8.55;;;;;;;22.58;53.12;102598.47;4970108;28;20029;-71
2021/09/03 00:13:40;;;;;;;14.23;8.60;;;;;;;22.53;52.98;102584.00;5002155;28;20065;-70
2021/09/03 00:16:05;;;;;;;13.02;8.25;;;;;;;22.53;53.07;102586.66;5005933;28;20042;-71
2021/09/03 00:18:31;;;;;;;13.75;8.68;;;;;;;22.58;53.10;102594.97;5006061;28;20042;-70
2021/09/03 00:20:56;;;;;;;12.45;7.82;;;;;;;22.56;52.80;102596.97;5001114;28;20034;-71
2021/09/03 00:23:22;;;;;;;14.80;9.05;;;;;;;22.55;52.78;102593.47;5001194;28;20034;-70
2021/09/03 00:25:50;;;;;;;13.35;8.32;;;;;;;22.54;53.10;102583.84;5000471;28;20057;-71
2021/09/03 00:28:16;;;;;;;12.38;8.23;;;;;;;22.55;53.24;102582.03;4986759;28;20049;-70
2021/09/03 00:30:41;;;;;;;14.10;8.60;;;;;;;22.55;52.89;102582.03;4987956;28;20034;-71
2021/09/03 00:33:07;;;;;;;13.32;8.23;;;;;;;22.52;52.89;102572.56;5004868;28;20046;-70
2021/09/03 00:35:32;;;;;;;13.15;7.90;;;;;;;22.47;53.02;102558.09;5002725;28;20083;-71
2021/09/03 00:37:58;;;;;;;16.45;9.48;;;;;;;22.54;52.72;102570.56;4985341;28;20046;-70
2021/09/03 00:40:23;;;;;;;12.77;8.35;;;;;;;22.55;52.97;102558.13;5003993;28;20038;-70
2021/09/03 00:42:49;;;;;;;14.30;8.70;;;;;;;22.54;53.01;102564.44;5005978;28;20091;-70
2021/09/03 00:45:14;;;;;;;15.63;8.73;;;;;;;22.51;52.88;102559.44;5004683;28;20042;-70
2021/09/03 00:47:40;;;;;;;12.48;7.95;;;;;;;22.53;53.04;102562.75;5000963;28;20505;-70
2021/09/03 00:50:07;;;;;;;13.70;8.75;;;;;;;22.53;52.83;102558.28;5003119;28;20090;-70
2021/09/03 00:52:32;;;;;;;14.13;8.50;;;;;;;22.45;53.09;102550.28;5001510;28;20425;-70
2021/09/03 00:54:58;;;;;;;12.90;8.35;;;;;;;22.52;52.96;102559.28;4970527;28;20030;-70
2021/09/03 00:57:27;;;;;;;12.45;8.27;;;;;;;22.50;52.76;102558.59;5004750;28;20491;-71
2021/09/03 00:59:54;;;;;;;12.15;7.63;;;;;;;22.45;52.85;102544.13;4976005;28;20132;-71
2021/09/03 01:02:20;;;;;;;12.85;8.30;;;;;;;22.51;52.91;102559.44;5003381;28;20057;-70
2021/09/03 01:04:47;;;;;;;13.45;8.90;;;;;;;22.51;52.74;102556.78;5004032;28;20483;-70
2021/09/03 01:07:13;;;;;;;13.20;8.32;;;;;;;22.43;53.09;102541.63;4986330;28;20046;-71
2021/09/03 01:09:39;;;;;;;14.25;8.02;;;;;;;22.44;52.78;102540.66;5004066;28;20039;-70
2021/09/03 01:12:04;;;;;;;12.07;7.72;;;;;;;22.47;53.09;102550.13;5002641;28;20038;-70
2021/09/03 01:14:30;;;;;;;14.70;8.43;;;;;;;22.42;52.87;102539.13;5002790;28;20042;-70
2021/09/03 01:16:56;;;;;;;13.57;7.95;;;;;;;22.47;52.81;102543.00;5003917;28;20042;-71
2021/09/03 01:19:21;;;;;;;14.80;8.23;;;;;;;22.38;52.90;102525.34;5002798;28;20054;-70
2021/09/03 01:21:49;;;;;;;14.35;8.85;;;;;;;22.46;53.03;102532.53;5004015;28;20116;-70
2021/09/03 01:24:15;;;;;;;12.18;7.90;;;;;;;22.38;52.99;102524.50;5001577;28;20042;-70
2021/09/03 01:26:40;;;;;;;12.80;8.48;;;;;;;22.46;52.82;102543.16;4958724;28;20084;-70
2021/09/03 01:29:06;;;;;;;14.40;8.15;;;;;;;22.43;52.71;102528.34;5002862;28;20030;-71
2021/09/03 01:31:31;;;;;;;13.05;7.38;;;;;;;22.33;52.97;102514.34;5002732;28;20372;-70
2021/09/03 01:33:57;;;;;;;13.18;7.90;;;;;;;22.37;52.87;102521.00;5002816;28;20050;-70
2021/09/03 01:36:30;;;;;;;13.48;8.30;;;;;;;22.44;53.12;102530.03;5002453;28;20050;-70
2021/09/03 01:38:57;;;;;;;13.18;8.15;;;;;;;22.44;52.86;102529.16;5000381;28;20049;-71
2021/09/03 01:41:23;;;;;;;12.15;7.53;;;;;;;22.42;53.05;102531.16;4982722;28;20050;-70
2021/09/03 01:43:49;;;;;;;14.23;8.70;;;;;;;22.44;53.13;102526.53;5002457;28;20048;-70
2021/09/03 01:46:14;;;;;;;13.80;8.52;;;;;;;22.38;52.75;102521.84;5001440;28;20030;-70
2021/09/03 01:48:40;;;;;;;12.68;7.82;;;;;;;22.16;53.19;102484.22;5003418;28;20046;-71
2021/09/03 01:51:05;;;;;;;12.70;7.22;;;;;;;22.40;52.89;102527.81;4985414;28;20095;-70
2021/09/03 01:53:31;;;;;;;11.65;7.60;;;;;;;22.35;53.18;102523.00;5003919;28;20063;-70
2021/09/03 01:55:57;;;;;;;12.75;7.75;;;;;;;22.37;52.86;102523.66;5001200;28;20129;-71
2021/09/03 01:58:22;;;;;;;14.35;8.27;;;;;;;22.37;53.01;102525.50;5002466;28;20075;-71
2021/09/03 02:00:48;;;;;;;13.27;8.52;;;;;;;22.38;53.09;102519.19;4994984;28;20121;-70
2021/09/03 02:03:14;;;;;;;13.07;7.82;;;;;;;22.28;52.98;102506.88;5002045;28;20487;-70
2021/09/03 02:05:41;;;;;;;13.35;8.07;;;;;;;22.33;53.06;102516.19;5002600;28;20057;-71
2021/09/03 02:08:06;;;;;;;12.75;7.95;;;;;;;22.38;52.92;102524.50;5003151;28;20130;-70
2021/09/03 02:10:32;;;;;;;16.60;8.40;;;;;;;22.37;52.94;102513.06;5002018;28;20471;-70
2021/09/03 02:12:58;;;;;;;13.80;8.27;;;;;;;22.37;53.16;102525.50;5003753;28;20046;-70
2021/09/03 02:15:24;;;;;;;11.77;7.88;;;;;;;22.36;53.08;102523.81;4984961;28;20072;-70
2021/09/03 02:17:49;;;;;;;13.15;8.43;;;;;;;22.35;52.89;102522.16;5002110;28;20713;-70
2021/09/03 02:20:15;;;;;;;13.25;7.90;;;;;;;22.33;53.17;102519.66;5002703;28;20042;-71
2021/09/03 02:22:41;;;;;;;13.13;7.95;;;;;;;22.23;53.00;102505.66;5001311;28;20037;-70
2021/09/03 02:25:08;;;;;;;12.52;7.82;;;;;;;22.33;53.00;102513.53;5002944;28;20034;-71
2021/09/03 02:27:34;;;;;;;12.45;8.15;;;;;;;22.27;52.99;102515.81;5002966;28;20037;-70
2021/09/03 02:30:00;;;;;;;14.73;8.77;;;;;;;22.35;52.73;102522.16;4985589;28;20036;-70
2021/09/03 02:32:26;;;;;;;12.65;8.15;;;;;;;22.30;52.91;102522.63;5001290;28;20037;-70
2021/09/03 02:34:52;;;;;;;13.10;7.85;;;;;;;22.33;52.95;102524.13;5002434;28;20084;-70
2021/09/03 02:37:17;;;;;;;12.25;7.88;;;;;;;22.28;52.59;102516.66;5000703;28;20748;-70
2021/09/03 02:39:43;;;;;;;12.20;7.57;;;;;;;22.26;52.73;102505.34;5001316;28;20072;-70
2021/09/03 02:42:08;;;;;;;12.75;8.02;;;;;;;22.26;52.96;102508.84;5002117;28;20046;-70
2021/09/03 02:44:35;;;;;;;14.57;7.63;;;;;;;22.33;52.96;102511.69;5001113;28;20053;-70
2021/09/03 02:47:01;;;;;;;12.05;7.80;;;;;;;22.30;53.11;102507.53;5002274;28;20041;-70
2021/09/03 02:49:26;;;;;;;11.02;8.07;;;;;;;22.31;52.75;102513.69;5002286;28;20534;-70
2021/09/03 02:51:52;;;;;;;12.90;7.78;;;;;;;22.29;52.79;102505.88;5001189;28;20573;-70
2021/09/03 02:54:17;;;;;;;11.57;7.15;;;;;;;22.22;52.81;102488.91;5001305;28;20110;-70
2021/09/03 02:56:43;;;;;;;13.68;8.30;;;;;;;22.24;52.91;102486.09;4965356;28;20527;-70
2021/09/03 02:59:09;;;;;;;12.70;7.50;;;;;;;22.24;52.74;102484.25;4985385;28;20034;-70
2021/09/03 03:01:34;;;;;;;12.35;8.00;;;;;;;22.29;52.79;102492.63;5001423;28;20044;-70
2021/09/03 03:04:00;;;;;;;12.43;7.97;;;;;;;22.21;52.67;102479.28;4984850;28;20042;-70
2021/09/03 03:06:26;;;;;;;12.38;8.10;;;;;;;22.26;52.72;102478.78;5002180;28;20049;-70
2021/09/03 03:08:51;;;;;;;12.57;8.20;;;;;;;22.06;52.71;102442.84;4984815;28;20038;-70
2021/09/03 03:11:17;;;;;;;12.23;7.20;;;;;;;22.27;52.58;102472.53;5001944;28;20049;-71
2021/09/03 03:13:49;;;;;;;12.68;7.50;;;;;;;22.02;52.77;102435.16;5001766;28;20061;-70
2021/09/03 03:16:15;;;;;;;13.75;8.07;;;;;;;22.21;52.94;102465.16;5000942;28;20556;-70
2021/09/03 03:18:41;;;;;;;12.60;7.70;;;;;;;22.25;52.80;102463.88;4983370;28;20130;-71
2021/09/03 03:21:07;;;;;;;11.82;7.38;;;;;;;22.24;52.84;102465.69;5001581;28;20045;-70
2021/09/03 03:23:33;;;;;;;12.98;8.07;;;;;;;22.23;52.83;102460.53;5003990;28;20041;-70
2021/09/03 03:25:59;;;;;;;13.68;7.90;;;;;;;22.23;53.07;102452.56;5009752;28;20046;-71
2021/09/03 03:28:24;;;;;;;13.45;8.45;;;;;;;22.19;52.49;102444.09;5006202;28;20038;-70
2021/09/03 03:30:50;;;;;;;11.73;7.20;;;;;;;22.01;52.91;102414.09;5002871;28;20487;-70
2021/09/03 03:33:15;;;;;;;12.82;6.93;;;;;;;22.20;52.82;102451.06;4986149;28;20037;-70
2021/09/03 03:35:41;;;;;;;11.10;7.22;;;;;;;22.21;52.71;102451.91;5000622;28;20038;-70
2021/09/03 03:38:06;;;;;;;11.63;7.93;;;;;;;22.19;52.94;102448.56;5001706;28;20042;-70
2021/09/03 03:40:32;;;;;;;10.20;7.15;;;;;;;22.19;52.71;102452.06;5001963;28;20076;-70
2021/09/03 03:42:58;;;;;;;10.48;6.68;;;;;;;22.12;52.71;102439.59;4984035;28;20132;-70
2021/09/03 03:45:24;;;;;;;11.10;7.30;;;;;;;22.22;52.65;102456.22;5001206;28;20189;-70
2021/09/03 03:47:49;;;;;;;12.43;7.25;;;;;;;22.21;52.56;102449.25;4984439;28;20038;-70
2021/09/03 03:50:16;;;;;;;11.55;7.22;;;;;;;22.21;52.55;102447.44;5001839;28;20111;-70
2021/09/03 03:52:41;;;;;;;10.95;7.47;;;;;;;22.06;52.63;102421.63;5000928;28;20377;-70
2021/09/03 03:55:08;;;;;;;13.43;8.05;;;;;;;22.18;52.79;102441.59;5001082;28;20064;-70
2021/09/03 03:57:33;;;;;;;11.73;6.80;;;;;;;22.20;52.87;102440.47;4982485;28;20777;-70
2021/09/03 03:59:59;;;;;;;11.23;7.72;;;;;;;22.15;52.76;102442.75;5000845;28;20042;-70
2021/09/03 04:02:24;;;;;;;11.00;7.35;;;;;;;22.07;52.64;102424.13;4999947;28;20037;-71
2021/09/03 04:04:50;;;;;;;12.77;7.75;;;;;;;22.18;52.41;102431.81;5001054;28;20043;-70
2021/09/03 04:07:15;;;;;;;10.85;6.85;;;;;;;22.16;52.86;102432.97;4999855;28;20037;-70
2021/09/03 04:09:41;;;;;;;11.15;6.97;;;;;;;22.16;52.63;102439.13;4967987;28;20030;-70
2021/09/03 04:12:09;;;;;;;15.38;7.70;;;;;;;22.13;52.52;102433.28;4999600;28;20049;-70
2021/09/03 04:14:34;;;;;;;11.98;7.28;;;;;;;22.17;52.89;102440.78;4983571;28;20050;-70
2021/09/03 04:17:00;;;;;;;9.63;6.55;;;;;;;22.14;52.41;102437.59;4998322;28;20537;-70
2021/09/03 04:19:25;;;;;;;9.93;6.88;;;;;;;22.15;52.80;102436.63;4983924;28;20470;-70
2021/09/03 04:21:51;;;;;;;10.65;6.88;;;;;;;22.14;52.72;102432.31;4985578;28;20119;-70
2021/09/03 04:24:16;;;;;;;10.45;6.95;;;;;;;22.12;52.69;102436.94;5001559;28;20051;-70
2021/09/03 04:26:43;;;;;;;9.77;6.15;;;;;;;22.12;52.99;102432.47;4980984;28;20026;-70
2021/09/03 04:29:08;;;;;;;10.52;7.13;;;;;;;22.16;52.51;102436.47;4964985;28;20034;-70
2021/09/03 04:31:34;;;;;;;11.02;6.68;;;;;;;22.08;52.64;102431.09;4983332;28;20041;-70
2021/09/03 04:34:00;;;;;;;10.77;7.20;;;;;;;22.11;52.76;102422.84;5001059;28;20504;-70
2021/09/03 04:36:25;;;;;;;12.90;7.43;;;;;;;22.05;52.58;102420.78;4999759;28;20092;-70
2021/09/03 04:38:51;;;;;;;9.43;6.43;;;;;;;22.08;52.56;102419.63;5001364;28;20046;-70
2021/09/03 04:41:17;;;;;;;10.55;6.90;;;;;;;22.09;52.63;102424.81;5000108;28;20045;-70
2021/09/03 04:43:42;;;;;;;10.25;6.60;;;;;;;22.10;52.57;102430.97;4998436;28;20125;-71
2021/09/03 04:46:08;;;;;;;10.75;6.60;;;;;;;22.09;52.71;102435.44;5001910;28;20034;-70
2021/09/03 04:48:33;;;;;;;11.68;7.07;;;;;;;22.09;52.41;102426.66;4986560;28;20037;-70
2021/09/03 04:50:59;;;;;;;8.93;6.10;;;;;;;22.04;52.80;102424.41;4998291;28;20034;-70
2021/09/03 04:53:25;;;;;;;11.15;6.55;;;;;;;22.09;52.61;102424.81;5000924;28;20691;-70
2021/09/03 04:55:52;;;;;;;10.55;6.50;;;;;;;22.09;52.54;102426.66;4999740;28;20056;-70
2021/09/03 04:58:18;;;;;;;8.45;5.88;;;;;;;22.06;52.83;102417.16;5000439;28;20091;-69
2021/09/03 05:00:44;;;;;;;10.98;6.80;;;;;;;22.05;52.86;102419.97;5000677;28;20042;-70
2021/09/03 05:03:09;;;;;;;11.38;7.47;;;;;;;22.06;52.86;102419.81;5000941;28;20045;-70
2021/09/03 05:05:35;;;;;;;10.88;6.90;;;;;;;22.04;52.57;102421.75;4999491;28;20045;-70
2021/09/03 05:08:00;;;;;;;9.27;6.13;;;;;;;21.96;52.76;102403.16;4999799;28;20042;-70
2021/09/03 05:10:26;;;;;;;12.18;7.28;;;;;;;22.05;52.70;102430.56;4962679;28;20034;-70
2021/09/03 05:12:51;;;;;;;12.45;6.97;;;;;;;22.00;52.80;102412.44;4996593;28;20144;-70
2021/09/03 05:15:18;;;;;;;12.23;6.63;;;;;;;22.07;52.65;102421.47;5002036;28;20130;-70
2021/09/03 05:17:49;;;;;;;9.32;6.38;;;;;;;22.02;52.71;102408.66;5000072;28;20042;-70
2021/09/03 05:20:15;;;;;;;10.32;6.50;;;;;;;22.03;52.50;102418.25;5001608;28;20091;-70
2021/09/03 05:22:41;;;;;;;10.70;6.63;;;;;;;22.02;52.44;102421.06;4996825;28;20045;-70
2021/09/03 05:25:09;;;;;;;10.02;7.05;;;;;;;21.98;52.63;102409.94;4986679;28;20045;-70
2021/09/03 05:27:36;;;;;;;10.07;6.60;;;;;;;21.99;52.83;102405.47;4999153;28;20048;-70
2021/09/03 05:30:03;;;;;;;11.00;6.90;;;;;;;22.05;52.60;102420.78;4999643;28;20044;-70
2021/09/03 05:32:29;;;;;;;10.73;7.10;;;;;;;21.99;52.73;102413.44;5000059;28;20104;-70
2021/09/03 05:34:54;;;;;;;10.73;6.53;;;;;;;22.02;52.81;102415.78;5001943;28;20050;-71
2021/09/03 05:37:20;;;;;;;11.63;6.25;;;;;;;22.01;52.81;102420.25;5001176;28;20483;-70
2021/09/03 05:39:45;;;;;;;9.38;6.30;;;;;;;21.96;52.47;102405.78;4998911;28;20042;-70
2021/09/03 05:42:11;;;;;;;13.20;6.85;;;;;;;22.00;52.49;102413.28;4992309;28;20041;-70
2021/09/03 05:44:37;;;;;;;9.85;6.50;;;;;;;21.98;52.85;102406.47;4982498;28;20095;-70
2021/09/03 05:47:03;;;;;;;11.07;7.32;;;;;;;22.00;52.45;102407.13;4985142;28;20041;-70
2021/09/03 05:49:28;;;;;;;10.73;6.72;;;;;;;21.99;52.83;102408.97;5001740;28;20041;-70
2021/09/03 05:51:54;;;;;;;9.63;6.47;;;;;;;21.98;52.79;102409.94;4981244;28;20077;-70
2021/09/03 05:54:20;;;;;;;13.48;7.95;;;;;;;22.03;52.83;102420.09;4985066;28;20060;-70
2021/09/03 05:56:45;;;;;;;12.52;6.97;;;;;;;21.98;52.77;102422.38;5002062;28;20065;-71
2021/09/03 05:59:11;;;;;;;11.18;7.07;;;;;;;21.96;52.77;102417.22;5001572;28;20095;-71
2021/09/03 06:01:36;;;;;;;10.30;6.47;;;;;;;21.99;52.69;102421.41;4998463;28;20061;-70
2021/09/03 06:04:02;;;;;;;9.25;6.32;;;;;;;22.02;52.83;102421.06;4987412;28;20049;-70
2021/09/03 06:06:27;;;;;;;12.32;6.93;;;;;;;21.95;52.69;102414.75;4985492;28;20038;-70
2021/09/03 06:08:53;;;;;;;12.27;6.88;;;;;;;22.02;52.62;102418.44;5001722;28;20120;-71
2021/09/03 06:11:21;;;;;;;9.32;6.35;;;;;;;21.98;52.65;102417.06;5003904;28;20070;-71
2021/09/03 06:13:47;;;;;;;9.55;6.43;;;;;;;21.94;52.67;102400.66;5001732;28;20135;-70
2021/09/03 06:16:13;;;;;;;11.05;7.05;;;;;;;21.97;52.57;102407.47;4985636;28;20046;-71
2021/09/03 06:18:39;;;;;;;12.77;7.20;;;;;;;21.94;52.66;102400.66;4987922;28;20090;-70
2021/09/03 06:21:05;;;;;;;10.32;6.50;;;;;;;21.97;52.74;102407.47;5004171;28;20044;-70
2021/09/03 06:23:30;;;;;;;12.05;6.75;;;;;;;21.97;52.41;102408.28;5003213;28;20046;-70
2021/09/03 06:25:56;;;;;;;10.93;6.40;;;;;;;21.96;52.48;102403.16;4991169;28;20041;-70
2021/09/03 06:28:21;;;;;;;10.40;6.65;;;;;;;22.01;52.31;102414.09;4975360;28;20388;-70
2021/09/03 06:30:47;;;;;;;9.73;6.05;;;;;;;22.01;52.46;102414.09;5005261;28;20042;-70
2021/09/03 06:33:14;;;;;;;9.82;6.28;;;;;;;22.00;52.51;102410.63;4984339;28;20042;-70
2021/09/03 06:35:40;;;;;;;11.82;6.78;;;;;;;21.95;52.90;102404.97;4982663;28;20046;-71
2021/09/03 06:38:05;;;;;;;11.05;6.40;;;;;;;22.01;52.56;102408.81;5001510;28;20073;-70
2021/09/03 06:40:31;;;;;;;9.90;5.93;;;;;;;22.02;52.74;102418.44;4999884;28;20130;-70
2021/09/03 06:42:56;;;;;;;12.50;6.90;;;;;;;22.03;52.31;102415.63;5003743;28;20046;-71
2021/09/03 06:45:22;;;;;;;11.80;6.80;;;;;;;21.97;52.43;102402.97;5001136;28;20042;-71
2021/09/03 06:47:48;;;;;;;9.82;6.13;;;;;;;22.05;52.49;102407.53;5000878;28;20037;-70
2021/09/03 06:50:14;;;;;;;9.13;6.50;;;;;;;22.03;52.50;102409.47;5002089;28;20037;-70
2021/09/03 06:52:39;;;;;;;9.48;6.63;;;;;;;21.96;52.63;102395.19;5001834;28;20046;-70
2021/09/03 06:55:06;;;;;;;12.35;6.70;;;;;;;22.03;52.29;102401.53;5001110;28;20079;-70
2021/09/03 06:57:31;;;;;;;10.13;6.57;;;;;;;22.03;52.79;102402.34;5003498;28;20041;-70
2021/09/03 06:59:57;;;;;;;10.73;6.03;;;;;;;21.94;52.47;102386.56;5000044;28;20492;-70
2021/09/03 07:02:22;;;;;;;10.10;6.30;;;;;;;22.00;52.39;102404.50;5003059;28;20038;-70
2021/09/03 07:04:48;;;;;;;8.82;6.05;;;;;;;21.96;52.56;102389.88;4991429;28;20777;-71
2021/09/03 07:07:14;;;;;;;11.15;6.35;;;;;;;21.96;52.71;102393.38;4997508;28;20038;-70
2021/09/03 07:09:39;;;;;;;10.10;6.60;;;;;;;22.06;52.33;102401.22;5001432;28;20139;-70
2021/09/03 07:12:05;;;;;;;10.43;6.43;;;;;;;22.07;52.27;102402.06;5002913;28;21532;-71
2021/09/03 07:14:31;;;;;;;10.00;6.65;;;;;;;22.07;52.33;102402.06;5002011;28;20208;-70
2021/09/03 07:16:56;;;;;;;9.73;5.82;;;;;;;22.05;52.56;102393.44;4998172;28;20081;-70
2021/09/03 07:19:22;;;;;;;12.95;6.60;;;;;;;22.08;52.23;102401.91;4984515;28;20030;-70
2021/09/03 07:21:48;;;;;;;10.98;6.40;;;;;;;22.10;52.52;102399.97;5001123;28;20030;-70
2021/09/03 07:24:13;;;;;;;10.90;6.40;;;;;;;22.06;52.37;102389.78;5002222;28;20053;-70
2021/09/03 07:26:39;;;;;;;8.68;6.05;;;;;;;22.08;52.64;102395.75;5001346;28;20391;-71
2021/09/03 07:29:04;;;;;;;10.30;5.88;;;;;;;22.02;52.52;102389.25;4999744;28;20068;-71
2021/09/03 07:31:31;;;;;;;10.07;6.43;;;;;;;22.11;52.48;102391.00;4984926;28;20038;-71
2021/09/03 07:33:57;;;;;;;10.55;6.68;;;;;;;22.11;52.62;102391.00;4999044;28;20102;-70
2021/09/03 07:36:23;;;;;;;10.05;6.35;;;;;;;22.08;52.93;102386.00;4999707;28;20067;-70
2021/09/03 07:38:48;;;;;;;9.68;6.30;;;;;;;22.01;52.40;102374.31;4999561;28;20117;-70
2021/09/03 07:41:14;;;;;;;8.65;6.15;;;;;;;22.10;52.86;102391.16;4982872;28;20132;-70
2021/09/03 07:43:40;;;;;;;13.30;5.95;;;;;;;22.11;52.81;102393.66;5000049;28;20038;-70
2021/09/03 07:46:05;;;;;;;11.38;6.57;;;;;;;22.08;52.87;102383.34;4998480;28;20039;-71
2021/09/03 07:48:31;;;;;;;9.07;6.18;;;;;;;22.11;52.64;102388.34;5000532;28;20558;-71
2021/09/03 07:50:57;;;;;;;9.02;6.20;;;;;;;22.05;52.98;102380.16;4999061;28;20508;-69
2021/09/03 07:53:22;;;;;;;9.50;6.05;;;;;;;22.13;52.80;102385.53;4999774;28;20495;-70
2021/09/03 07:55:48;;;;;;;9.00;5.75;;;;;;;22.11;52.84;102384.88;5007330;28;20041;-70
2021/09/03 07:58:14;;;;;;;10.98;6.28;;;;;;;22.14;52.68;102381.91;5032534;28;20442;-70
2021/09/03 08:00:39;;;;;;;10.18;5.88;;;;;;;22.14;52.90;102385.38;5020096;28;20046;-69
2021/09/03 08:03:05;;;;;;;10.32;6.40;;;;;;;22.16;52.89;102385.22;5041822;28;20050;-70
2021/09/03 08:05:31;;;;;;;13.07;7.00;;;;;;;22.15;52.87;102381.72;5011054;28;20135;-70
2021/09/03 08:07:56;;;;;;;10.80;6.50;;;;;;;22.16;52.96;102380.75;4999627;28;20022;-70
2021/09/03 08:10:22;;;;;;;9.13;6.32;;;;;;;22.18;52.45;102385.88;4965548;28;20495;-70
2021/09/03 08:12:47;;;;;;;13.15;6.75;;;;;;;22.16;52.94;102378.09;5059582;28;20306;-70
2021/09/03 08:15:14;;;;;;;11.90;6.32;;;;;;;22.08;52.63;102369.25;4995497;28;20062;-69
2021/09/03 08:17:40;;;;;;;13.93;7.25;;;;;;;22.26;52.78;102377.97;4987182;28;20046;-71
2021/09/03 08:20:08;;;;;;;11.52;6.38;;;;;;;22.20;52.68;102375.94;4994851;28;20044;-71
2021/09/03 08:22:34;;;;;;;13.20;6.07;;;;;;;22.24;52.81;102377.28;5004930;28;20046;-71
2021/09/03 08:24:59;;;;;;;14.50;6.90;;;;;;;22.19;52.92;102375.13;4986776;28;20053;-70
2021/09/03 08:27:25;;;;;;;12.52;6.38;;;;;;;22.18;53.23;102386.72;5012673;28;20058;-70
2021/09/03 08:29:51;;;;;;;10.80;6.32;;;;;;;22.13;52.73;102375.75;5002019;28;20039;-70
2021/09/03 08:32:18;;;;;;;11.75;6.85;;;;;;;22.14;53.14;102382.72;5049270;28;20028;-70
2021/09/03 08:34:43;;;;;;;11.35;5.70;;;;;;;22.13;52.89;102382.88;5045418;28;20042;-70
2021/09/03 08:37:10;;;;;;;14.32;6.07;;;;;;;22.13;52.68;102381.06;5015370;28;20036;-70
2021/09/03 08:39:35;;;;;;;10.35;6.30;;;;;;;22.12;53.00;102370.59;5005985;28;20041;-70
2021/09/03 08:42:02;;;;;;;10.80;6.18;;;;;;;22.12;52.88;102373.25;5043327;28;20473;-71
2021/09/03 08:44:31;;;;;;;11.10;6.80;;;;;;;22.13;52.99;102382.88;5038456;28;20047;-71
2021/09/03 08:46:57;;;;;;;13.65;6.32;;;;;;;22.16;53.08;102383.41;5040220;28;20049;-72
2021/09/03 08:49:23;;;;;;;13.30;6.38;;;;;;;22.16;53.31;102388.69;5042149;28;20042;-72
2021/09/03 08:51:49;;;;;;;11.93;6.05;;;;;;;22.12;53.33;102391.84;5032854;28;20080;-72
2021/09/03 08:54:14;;;;;;;14.88;6.93;;;;;;;22.13;53.76;102389.03;5052365;28;20644;-72
2021/09/03 08:56:40;;;;;;;11.88;6.38;;;;;;;22.08;53.41;102383.34;5027762;28;20043;-72
2021/09/03 08:59:06;;;;;;;14.30;6.07;;;;;;;22.11;53.74;102393.66;5040165;28;20055;-72
2021/09/03 09:01:31;;;;;;;9.82;5.63;;;;;;;22.08;53.68;102386.00;5054388;28;20062;-71
2021/09/03 09:04:08;;;;;;;10.95;6.47;;;;;;;22.08;53.49;102378.03;5024874;28;20042;-72
2021/09/03 09:06:34;;;;;;;13.30;6.65;;;;;;;22.09;53.12;102379.72;5057391;28;20042;-72
2021/09/03 09:09:11;;;;;;;11.85;6.38;;;;;;;22.00;53.22;102376.13;5021436;28;20031;-72
2021/09/03 09:11:37;;;;;;;14.38;7.35;;;;;;;22.09;53.54;102384.19;5047253;28;20034;-72
2021/09/03 09:14:10;;;;;;;14.18;6.03;;;;;;;22.10;53.62;102385.84;4991941;28;20077;-72
2021/09/03 09:16:35;;;;;;;12.23;6.18;;;;;;;22.10;53.90;102383.22;5006584;28;20092;-72
2021/09/03 09:19:04;;;;;;;17.52;6.72;;;;;;;22.11;53.52;102390.19;5024812;28;20061;-72
2021/09/03 09:21:34;;;;;;;13.38;6.25;;;;;;;22.08;53.70;102393.94;5005226;28;20112;-71
2021/09/03 09:24:01;;;;;;;12.70;7.13;;;;;;;22.10;53.37;102401.78;5024036;28;20092;-72
2021/09/03 09:26:54;;;;;;;12.20;7.05;;;;;;;21.98;53.26;102390.56;5015178;28;20036;-71
2021/09/03 09:29:28;;;;;;;12.45;6.90;;;;;;;22.09;53.62;102408.06;5011467;28;20061;-72
2021/09/03 09:32:07;;;;;;;12.98;6.40;;;;;;;22.08;53.30;102399.25;5001706;28;20395;-70
2021/09/03 09:34:34;;;;;;;13.38;8.02;;;;;;;22.10;53.40;102396.47;4990985;28;20027;-70
2021/09/03 09:37:03;;;;;;;15.20;6.93;;;;;;;22.02;53.26;102382.13;4991977;28;20060;-70
2021/09/03 09:39:45;;;;;;;15.80;6.82;;;;;;;22.06;52.81;102395.94;5000240;28;20470;-70
2021/09/03 09:42:27;;;;;;;11.80;7.40;;;;;;;22.00;53.20;102381.44;4999530;28;20164;-70
2021/09/03 09:45:07;;;;;;;12.32;6.78;;;;;;;22.03;53.15;102397.03;4994155;28;20492;-69
2021/09/03 09:47:32;;;;;;;;;;;;;;;22.04;53.33;102400.53;4999687;28;20022;-69
2021/09/03 09:49:58;;;;;;;14.93;6.88;;;;;;;22.05;53.06;102396.09;5000426;28;19966;-69
2021/09/03 09:52:37;;;;;;;15.77;7.38;;;;;;;22.01;53.36;102391.06;4990609;28;20057;-69
2021/09/03 09:55:06;;;;;;;10.93;6.53;;;;;;;22.08;53.00;102393.94;4993394;28;20171;-69
2021/09/03 09:57:35;;;;;;;13.50;6.63;;;;;;;22.09;53.15;102386.84;4996107;28;20117;-69
2021/09/03 10:00:05;;;;;;;11.13;6.63;;;;;;;22.10;53.25;102381.38;5001841;28;20086;-69
2021/09/03 10:02:38;;;;;;;13.10;6.97;;;;;;;21.99;53.30;102371.81;5000547;28;20049;-69
2021/09/03 10:05:04;;;;;;;11.93;7.25;;;;;;;22.09;52.90;102394.81;5000914;28;20038;-70
2021/09/03 10:07:31;;;;;;;13.88;7.25;;;;;;;22.11;53.01;102383.03;5000062;28;20034;-69
2021/09/03 10:09:57;;;;;;;12.68;7.70;;;;;;;22.09;53.10;102381.53;4980479;28;20045;-69
2021/09/03 10:12:22;;;;;;;14.05;7.70;;;;;;;22.07;52.87;102379.03;4983659;28;20048;-69
2021/09/03 10:14:49;;;;;;;12.25;7.22;;;;;;;22.10;53.00;102383.22;4996146;28;20157;-69
2021/09/03 10:17:16;;;;;;;15.00;6.80;;;;;;;22.05;52.87;102367.75;4999319;28;20125;-69
2021/09/03 10:19:42;;;;;;;10.63;6.82;;;;;;;22.15;52.98;102375.59;4983046;28;20448;-70
2021/09/03 10:22:11;;;;;;;13.52;7.53;;;;;;;22.08;53.01;102364.75;4983763;28;20041;-70
2021/09/03 10:24:38;;;;;;;12.30;6.70;;;;;;;22.14;52.81;102377.41;4998781;28;20030;-70
2021/09/03 10:27:06;;;;;;;14.38;8.07;;;;;;;22.15;52.79;102375.59;5001556;28;20052;-70
2021/09/03 10:29:35;;;;;;;12.98;6.78;;;;;;;22.15;52.68;102379.09;4997422;28;20030;-70
2021/09/03 10:32:07;;;;;;;12.73;7.25;;;;;;;22.16;52.67;102375.44;4995557;28;20491;-69
2021/09/03 10:34:42;;;;;;;12.80;7.10;;;;;;;22.20;52.81;102371.47;5002117;28;20819;-69
2021/09/03 10:37:14;;;;;;;13.75;7.35;;;;;;;22.20;53.03;102373.28;4998493;28;20042;-69
2021/09/03 10:39:46;;;;;;;13.05;7.45;;;;;;;22.21;53.00;102370.47;4999760;28;20065;-70
2021/09/03 10:42:37;;;;;;;11.50;7.30;;;;;;;22.16;53.11;102364.00;5014222;28;20562;-70
2021/09/03 10:45:04;;;;;;;13.93;8.00;;;;;;;22.21;53.03;102370.47;5019029;28;20064;-69
2021/09/03 10:48:00;;;;;;;14.48;7.00;;;;;;;22.22;53.03;102368.66;5000681;28;20038;-70
2021/09/03 10:50:31;;;;;;;13.68;7.57;;;;;;;22.22;52.93;102364.19;5002902;28;20033;-70
2021/09/03 10:53:20;;;;;;;18.08;7.38;;;;;;;22.22;52.58;102348.25;4984644;28;20824;-70
2021/09/03 10:56:05;;;;;;;17.95;8.10;;;;;;;22.24;52.03;102356.88;4973522;28;20034;-71
2021/09/03 10:58:36;;;;;;;17.20;8.27;;;;;;;22.18;51.44;102354.88;4988465;28;20045;-70
2021/09/03 11:01:14;;;;;;;19.33;7.53;;;;;;;22.10;52.24;102352.19;4977542;28;20042;-70
2021/09/03 11:03:52;;;;;;;17.27;7.43;;;;;;;22.12;52.43;102352.88;4988660;28;20141;-70
2021/09/03 11:06:23;;;;;;;13.13;6.88;;;;;;;22.12;52.66;102347.56;4990759;28;20061;-70
2021/09/03 11:08:51;;;;;;;14.02;7.65;;;;;;;22.11;52.34;102345.06;4997410;28;20050;-70
2021/09/03 11:11:33;;;;;;;14.75;7.47;;;;;;;22.11;52.70;102350.38;4985380;28;20100;-70
2021/09/03 11:14:09;;;;;;;14.88;7.22;;;;;;;22.02;52.44;102323.75;4982600;28;20103;-70
2021/09/03 11:16:39;;;;;;;14.85;7.40;;;;;;;22.10;52.93;102338.94;4989925;28;20058;-70
2021/09/03 11:19:08;;;;;;;;;;;;;;;22.14;52.67;102339.44;4996417;28;20076;-70